sensor_id;sensor_type;location;lat;lon;timestamp;P1;durP1;ratioP1;P2;durP2;ratioP2
34142;SDS011;20419;10.658;106.724;2023-03-11T00:02:14;7.32;;;5.25;;
34142;SDS011;20419;10.658;106.724;2023-03-11T00:04:42;7.05;;;5.32;;
34142;SDS011;20419;10.658;106.724;2023-03-11T00:07:09;7.47;;;5.60;;
34142;SDS011;20419;10.658;106.724;2023-03-11T00:09:36;7.70;;;6.20;;
34142;SDS011;20419;10.658;106.724;2023-03-11T00:12:03;7.68;;;6.03;;
34142;SDS011;20419;10.658;106.724;2023-03-11T00:14:30;7.22;;;5.60;;
34142;SDS011;20419;10.658;106.724;2023-03-11T00:16:57;7.03;;;4.97;;
34142;SDS011;20419;10.658;106.724;2023-03-11T00:19:24;7.55;;;5.45;;
34142;SDS011;20419;10.658;106.724;2023-03-11T00:21:51;6.90;;;5.25;;
34142;SDS011;20419;10.658;106.724;2023-03-11T00:24:18;6.78;;;5.53;;
34142;SDS011;20419;10.658;106.724;2023-03-11T00:26:45;6.28;;;5.40;;
34142;SDS011;20419;10.658;106.724;2023-03-11T00:29:12;6.68;;;5.85;;
34142;SDS011;20419;10.658;106.724;2023-03-11T00:31:39;7.32;;;6.00;;
34142;SDS011;20419;10.658;106.724;2023-03-11T00:34:06;7.95;;;5.75;;
34142;SDS011;20419;10.658;106.724;2023-03-11T00:36:33;10.07;;;6.93;;
34142;SDS011;20419;10.658;106.724;2023-03-11T00:39:00;6.47;;;5.38;;
34142;SDS011;20419;10.658;106.724;2023-03-11T00:41:33;6.18;;;5.30;;
34142;SDS011;20419;10.658;106.724;2023-03-11T00:44:00;8.00;;;6.18;;
34142;SDS011;20419;10.658;106.724;2023-03-11T00:46:27;7.00;;;5.57;;
34142;SDS011;20419;10.658;106.724;2023-03-11T00:48:55;7.67;;;5.93;;
34142;SDS011;20419;10.658;106.724;2023-03-11T00:51:22;7.88;;;6.22;;
34142;SDS011;20419;10.658;106.724;2023-03-11T00:53:49;7.20;;;5.88;;
34142;SDS011;20419;10.658;106.724;2023-03-11T00:56:16;6.72;;;5.57;;
34142;SDS011;20419;10.658;106.724;2023-03-11T00:58:43;7.30;;;5.50;;
34142;SDS011;20419;10.658;106.724;2023-03-11T01:01:14;9.02;;;5.82;;
34142;SDS011;20419;10.658;106.724;2023-03-11T01:03:41;10.75;;;6.70;;
34142;SDS011;20419;10.658;106.724;2023-03-11T01:06:08;9.93;;;6.10;;
34142;SDS011;20419;10.658;106.724;2023-03-11T01:08:36;9.45;;;6.43;;
34142;SDS011;20419;10.658;106.724;2023-03-11T01:11:03;14.10;;;6.93;;
34142;SDS011;20419;10.658;106.724;2023-03-11T01:13:30;15.80;;;7.88;;
34142;SDS011;20419;10.658;106.724;2023-03-11T01:15:58;11.05;;;7.07;;
34142;SDS011;20419;10.658;106.724;2023-03-11T01:18:25;13.20;;;7.25;;
34142;SDS011;20419;10.658;106.724;2023-03-11T01:20:53;11.25;;;6.55;;
34142;SDS011;20419;10.658;106.724;2023-03-11T01:23:20;13.50;;;7.18;;
34142;SDS011;20419;10.658;106.724;2023-03-11T01:25:47;10.90;;;6.80;;
34142;SDS011;20419;10.658;106.724;2023-03-11T01:28:14;11.90;;;6.95;;
34142;SDS011;20419;10.658;106.724;2023-03-11T01:30:41;11.00;;;6.95;;
34142;SDS011;20419;10.658;106.724;2023-03-11T01:33:16;13.77;;;7.47;;
34142;SDS011;20419;10.658;106.724;2023-03-11T01:35:43;11.88;;;7.53;;
34142;SDS011;20419;10.658;106.724;2023-03-11T01:38:11;14.40;;;7.07;;
34142;SDS011;20419;10.658;106.724;2023-03-11T01:40:39;13.05;;;7.70;;
34142;SDS011;20419;10.658;106.724;2023-03-11T01:43:35;13.30;;;7.72;;
34142;SDS011;20419;10.658;106.724;2023-03-11T01:48:20;12.05;;;7.38;;
34142;SDS011;20419;10.658;106.724;2023-03-11T01:50:48;16.67;;;8.68;;
34142;SDS011;20419;10.658;106.724;2023-03-11T01:53:16;12.07;;;7.90;;
34142;SDS011;20419;10.658;106.724;2023-03-11T01:55:45;12.73;;;7.03;;
34142;SDS011;20419;10.658;106.724;2023-03-11T01:58:13;13.90;;;9.20;;
34142;SDS011;20419;10.658;106.724;2023-03-11T02:00:41;12.73;;;8.40;;
34142;SDS011;20419;10.658;106.724;2023-03-11T02:03:20;15.32;;;9.23;;
34142;SDS011;20419;10.658;106.724;2023-03-11T02:05:50;12.57;;;8.05;;
34142;SDS011;20419;10.658;106.724;2023-03-11T02:08:17;11.97;;;8.40;;
34142;SDS011;20419;10.658;106.724;2023-03-11T02:10:44;11.80;;;8.35;;
34142;SDS011;20419;10.658;106.724;2023-03-11T02:13:12;13.48;;;8.32;;
34142;SDS011;20419;10.658;106.724;2023-03-11T02:15:39;13.18;;;8.55;;
34142;SDS011;20419;10.658;106.724;2023-03-11T02:18:06;16.23;;;9.10;;
34142;SDS011;20419;10.658;106.724;2023-03-11T02:23:13;12.18;;;8.95;;
34142;SDS011;20419;10.658;106.724;2023-03-11T02:28:08;14.05;;;8.23;;
34142;SDS011;20419;10.658;106.724;2023-03-11T02:30:36;14.02;;;9.93;;
34142;SDS011;20419;10.658;106.724;2023-03-11T02:33:05;10.85;;;8.02;;
34142;SDS011;20419;10.658;106.724;2023-03-11T02:35:32;14.25;;;9.00;;
34142;SDS011;20419;10.658;106.724;2023-03-11T02:37:59;13.18;;;9.57;;
34142;SDS011;20419;10.658;106.724;2023-03-11T02:42:55;14.35;;;8.88;;
34142;SDS011;20419;10.658;106.724;2023-03-11T02:45:24;12.02;;;8.27;;
34142;SDS011;20419;10.658;106.724;2023-03-11T02:47:51;14.18;;;9.05;;
34142;SDS011;20419;10.658;106.724;2023-03-11T02:50:20;13.18;;;9.48;;
34142;SDS011;20419;10.658;106.724;2023-03-11T02:52:48;14.93;;;9.30;;
34142;SDS011;20419;10.658;106.724;2023-03-11T02:55:15;14.90;;;9.38;;
34142;SDS011;20419;10.658;106.724;2023-03-11T02:57:42;13.02;;;9.02;;
34142;SDS011;20419;10.658;106.724;2023-03-11T03:00:10;13.25;;;9.75;;
34142;SDS011;20419;10.658;106.724;2023-03-11T03:02:44;12.73;;;9.27;;
34142;SDS011;20419;10.658;106.724;2023-03-11T03:05:11;13.30;;;10.00;;
34142;SDS011;20419;10.658;106.724;2023-03-11T03:07:38;16.73;;;10.30;;
34142;SDS011;20419;10.658;106.724;2023-03-11T03:10:05;14.07;;;9.73;;
34142;SDS011;20419;10.658;106.724;2023-03-11T03:12:33;17.27;;;10.27;;
34142;SDS011;20419;10.658;106.724;2023-03-11T03:15:00;12.43;;;9.38;;
34142;SDS011;20419;10.658;106.724;2023-03-11T03:17:27;13.20;;;9.68;;
34142;SDS011;20419;10.658;106.724;2023-03-11T03:19:53;16.70;;;9.90;;
34142;SDS011;20419;10.658;106.724;2023-03-11T03:22:20;15.10;;;10.45;;
34142;SDS011;20419;10.658;106.724;2023-03-11T03:24:52;13.85;;;9.50;;
34142;SDS011;20419;10.658;106.724;2023-03-11T03:27:19;12.30;;;9.23;;
34142;SDS011;20419;10.658;106.724;2023-03-11T03:29:46;14.18;;;10.07;;
34142;SDS011;20419;10.658;106.724;2023-03-11T03:32:13;13.55;;;9.73;;
34142;SDS011;20419;10.658;106.724;2023-03-11T03:34:39;12.68;;;9.57;;
34142;SDS011;20419;10.658;106.724;2023-03-11T03:37:06;12.60;;;9.50;;
34142;SDS011;20419;10.658;106.724;2023-03-11T03:39:33;13.00;;;9.02;;
34142;SDS011;20419;10.658;106.724;2023-03-11T03:42:00;12.48;;;9.48;;
34142;SDS011;20419;10.658;106.724;2023-03-11T03:44:28;10.60;;;8.25;;
34142;SDS011;20419;10.658;106.724;2023-03-11T03:46:55;16.08;;;9.35;;
34142;SDS011;20419;10.658;106.724;2023-03-11T03:49:22;13.68;;;9.75;;
34142;SDS011;20419;10.658;106.724;2023-03-11T03:51:49;11.20;;;9.10;;
34142;SDS011;20419;10.658;106.724;2023-03-11T03:54:16;14.10;;;9.98;;
34142;SDS011;20419;10.658;106.724;2023-03-11T03:56:42;12.82;;;9.27;;
34142;SDS011;20419;10.658;106.724;2023-03-11T03:59:09;13.77;;;9.30;;
34142;SDS011;20419;10.658;106.724;2023-03-11T04:01:36;11.80;;;9.38;;
34142;SDS011;20419;10.658;106.724;2023-03-11T04:04:03;10.52;;;8.80;;
34142;SDS011;20419;10.658;106.724;2023-03-11T04:06:30;12.57;;;9.48;;
34142;SDS011;20419;10.658;106.724;2023-03-11T04:08:57;13.48;;;9.18;;
34142;SDS011;20419;10.658;106.724;2023-03-11T04:11:24;11.25;;;9.13;;
34142;SDS011;20419;10.658;106.724;2023-03-11T04:13:51;11.75;;;9.40;;
34142;SDS011;20419;10.658;106.724;2023-03-11T04:16:19;10.55;;;8.95;;
34142;SDS011;20419;10.658;106.724;2023-03-11T04:18:47;14.60;;;10.23;;
34142;SDS011;20419;10.658;106.724;2023-03-11T04:21:15;11.45;;;9.25;;
34142;SDS011;20419;10.658;106.724;2023-03-11T04:23:42;10.38;;;8.88;;
34142;SDS011;20419;10.658;106.724;2023-03-11T04:26:09;12.23;;;9.13;;
34142;SDS011;20419;10.658;106.724;2023-03-11T04:28:37;12.15;;;9.32;;
34142;SDS011;20419;10.658;106.724;2023-03-11T04:31:04;10.50;;;8.43;;
34142;SDS011;20419;10.658;106.724;2023-03-11T04:33:31;11.48;;;8.45;;
34142;SDS011;20419;10.658;106.724;2023-03-11T04:35:58;11.73;;;9.43;;
34142;SDS011;20419;10.658;106.724;2023-03-11T04:38:25;10.88;;;8.77;;
34142;SDS011;20419;10.658;106.724;2023-03-11T04:40:52;11.43;;;8.70;;
34142;SDS011;20419;10.658;106.724;2023-03-11T04:43:19;12.25;;;9.25;;
34142;SDS011;20419;10.658;106.724;2023-03-11T04:45:48;13.40;;;9.25;;
34142;SDS011;20419;10.658;106.724;2023-03-11T04:48:16;13.65;;;9.20;;
34142;SDS011;20419;10.658;106.724;2023-03-11T04:50:43;10.98;;;8.85;;
34142;SDS011;20419;10.658;106.724;2023-03-11T04:53:10;12.27;;;9.05;;
34142;SDS011;20419;10.658;106.724;2023-03-11T04:55:37;11.43;;;8.73;;
34142;SDS011;20419;10.658;106.724;2023-03-11T04:58:04;12.02;;;9.18;;
34142;SDS011;20419;10.658;106.724;2023-03-11T05:00:31;12.77;;;9.63;;
34142;SDS011;20419;10.658;106.724;2023-03-11T05:02:58;12.15;;;8.82;;
34142;SDS011;20419;10.658;106.724;2023-03-11T05:05:25;12.85;;;9.55;;
34142;SDS011;20419;10.658;106.724;2023-03-11T05:07:52;10.93;;;8.93;;
34142;SDS011;20419;10.658;106.724;2023-03-11T05:10:19;11.98;;;8.95;;
34142;SDS011;20419;10.658;106.724;2023-03-11T05:12:47;11.88;;;8.90;;
34142;SDS011;20419;10.658;106.724;2023-03-11T05:15:15;11.90;;;9.40;;
34142;SDS011;20419;10.658;106.724;2023-03-11T05:17:42;10.85;;;8.60;;
34142;SDS011;20419;10.658;106.724;2023-03-11T05:20:10;10.43;;;8.98;;
34142;SDS011;20419;10.658;106.724;2023-03-11T05:22:39;11.60;;;9.50;;
34142;SDS011;20419;10.658;106.724;2023-03-11T05:25:06;10.90;;;9.52;;
34142;SDS011;20419;10.658;106.724;2023-03-11T05:27:33;11.88;;;9.35;;
34142;SDS011;20419;10.658;106.724;2023-03-11T05:30:01;11.27;;;9.20;;
34142;SDS011;20419;10.658;106.724;2023-03-11T05:32:28;12.40;;;10.13;;
34142;SDS011;20419;10.658;106.724;2023-03-11T05:34:55;11.57;;;10.10;;
34142;SDS011;20419;10.658;106.724;2023-03-11T05:37:22;12.85;;;9.57;;
34142;SDS011;20419;10.658;106.724;2023-03-11T05:39:52;11.93;;;9.82;;
34142;SDS011;20419;10.658;106.724;2023-03-11T05:42:20;12.27;;;9.70;;
34142;SDS011;20419;10.658;106.724;2023-03-11T05:44:47;12.07;;;9.95;;
34142;SDS011;20419;10.658;106.724;2023-03-11T05:47:15;12.57;;;10.45;;
34142;SDS011;20419;10.658;106.724;2023-03-11T05:49:42;12.65;;;10.50;;
34142;SDS011;20419;10.658;106.724;2023-03-11T05:52:10;12.30;;;9.95;;
34142;SDS011;20419;10.658;106.724;2023-03-11T05:54:37;12.43;;;10.30;;
34142;SDS011;20419;10.658;106.724;2023-03-11T05:57:04;10.95;;;9.32;;
34142;SDS011;20419;10.658;106.724;2023-03-11T05:59:31;12.38;;;10.55;;
34142;SDS011;20419;10.658;106.724;2023-03-11T06:02:00;12.77;;;10.65;;
34142;SDS011;20419;10.658;106.724;2023-03-11T06:04:27;12.82;;;9.95;;
34142;SDS011;20419;10.658;106.724;2023-03-11T06:06:54;14.65;;;10.70;;
34142;SDS011;20419;10.658;106.724;2023-03-11T06:09:21;13.32;;;11.40;;
34142;SDS011;20419;10.658;106.724;2023-03-11T06:11:48;12.98;;;10.50;;
34142;SDS011;20419;10.658;106.724;2023-03-11T06:14:15;13.02;;;10.82;;
34142;SDS011;20419;10.658;106.724;2023-03-11T06:16:43;13.93;;;11.13;;
34142;SDS011;20419;10.658;106.724;2023-03-11T06:19:11;13.13;;;10.88;;
34142;SDS011;20419;10.658;106.724;2023-03-11T06:21:38;11.98;;;10.50;;
34142;SDS011;20419;10.658;106.724;2023-03-11T06:24:05;12.25;;;10.18;;
34142;SDS011;20419;10.658;106.724;2023-03-11T06:26:32;14.48;;;10.23;;
34142;SDS011;20419;10.658;106.724;2023-03-11T06:29:00;11.68;;;9.93;;
34142;SDS011;20419;10.658;106.724;2023-03-11T06:31:27;13.00;;;10.55;;
34142;SDS011;20419;10.658;106.724;2023-03-11T06:33:54;13.23;;;11.63;;
34142;SDS011;20419;10.658;106.724;2023-03-11T06:36:22;12.48;;;10.88;;
34142;SDS011;20419;10.658;106.724;2023-03-11T06:38:52;13.18;;;10.70;;
34142;SDS011;20419;10.658;106.724;2023-03-11T06:41:20;13.38;;;11.00;;
34142;SDS011;20419;10.658;106.724;2023-03-11T06:43:47;12.95;;;11.20;;
34142;SDS011;20419;10.658;106.724;2023-03-11T06:46:15;12.93;;;11.23;;
34142;SDS011;20419;10.658;106.724;2023-03-11T06:48:43;12.85;;;11.35;;
34142;SDS011;20419;10.658;106.724;2023-03-11T06:51:17;12.85;;;11.10;;
34142;SDS011;20419;10.658;106.724;2023-03-11T06:53:47;14.57;;;11.83;;
34142;SDS011;20419;10.658;106.724;2023-03-11T06:56:14;12.73;;;11.30;;
34142;SDS011;20419;10.658;106.724;2023-03-11T06:58:43;14.20;;;11.05;;
34142;SDS011;20419;10.658;106.724;2023-03-11T07:01:12;13.13;;;11.73;;
34142;SDS011;20419;10.658;106.724;2023-03-11T07:03:40;14.93;;;12.35;;
34142;SDS011;20419;10.658;106.724;2023-03-11T07:06:11;13.25;;;10.98;;
34142;SDS011;20419;10.658;106.724;2023-03-11T07:08:39;14.45;;;11.68;;
34142;SDS011;20419;10.658;106.724;2023-03-11T07:11:11;13.05;;;11.75;;
34142;SDS011;20419;10.658;106.724;2023-03-11T07:13:39;12.93;;;11.60;;
34142;SDS011;20419;10.658;106.724;2023-03-11T07:16:10;14.23;;;11.40;;
34142;SDS011;20419;10.658;106.724;2023-03-11T07:18:40;15.95;;;12.85;;
34142;SDS011;20419;10.658;106.724;2023-03-11T07:21:07;14.15;;;12.63;;
34142;SDS011;20419;10.658;106.724;2023-03-11T07:23:35;16.23;;;13.57;;
34142;SDS011;20419;10.658;106.724;2023-03-11T07:26:02;13.75;;;12.35;;
34142;SDS011;20419;10.658;106.724;2023-03-11T07:28:29;13.52;;;11.35;;
34142;SDS011;20419;10.658;106.724;2023-03-11T07:30:56;13.68;;;12.27;;
34142;SDS011;20419;10.658;106.724;2023-03-11T07:33:23;14.98;;;12.95;;
34142;SDS011;20419;10.658;106.724;2023-03-11T07:35:50;12.23;;;10.93;;
34142;SDS011;20419;10.658;106.724;2023-03-11T07:38:18;14.02;;;12.35;;
34142;SDS011;20419;10.658;106.724;2023-03-11T07:40:45;13.55;;;12.13;;
34142;SDS011;20419;10.658;106.724;2023-03-11T07:43:12;13.55;;;12.05;;
34142;SDS011;20419;10.658;106.724;2023-03-11T07:45:40;13.88;;;11.57;;
34142;SDS011;20419;10.658;106.724;2023-03-11T07:48:07;17.17;;;12.43;;
34142;SDS011;20419;10.658;106.724;2023-03-11T07:50:35;16.08;;;13.38;;
34142;SDS011;20419;10.658;106.724;2023-03-11T07:53:02;13.40;;;11.55;;
34142;SDS011;20419;10.658;106.724;2023-03-11T07:55:30;15.05;;;13.23;;
34142;SDS011;20419;10.658;106.724;2023-03-11T07:57:57;15.25;;;13.15;;
34142;SDS011;20419;10.658;106.724;2023-03-11T08:00:25;16.45;;;13.65;;
34142;SDS011;20419;10.658;106.724;2023-03-11T08:02:53;14.60;;;13.10;;
34142;SDS011;20419;10.658;106.724;2023-03-11T08:05:21;14.48;;;12.80;;
34142;SDS011;20419;10.658;106.724;2023-03-11T08:07:48;14.63;;;13.05;;
34142;SDS011;20419;10.658;106.724;2023-03-11T08:10:15;15.73;;;14.10;;
34142;SDS011;20419;10.658;106.724;2023-03-11T08:12:42;15.00;;;13.40;;
34142;SDS011;20419;10.658;106.724;2023-03-11T08:15:09;13.85;;;12.45;;
34142;SDS011;20419;10.658;106.724;2023-03-11T08:17:36;15.02;;;13.43;;
34142;SDS011;20419;10.658;106.724;2023-03-11T08:20:03;14.70;;;12.80;;
34142;SDS011;20419;10.658;106.724;2023-03-11T08:22:33;16.75;;;13.98;;
34142;SDS011;20419;10.658;106.724;2023-03-11T08:25:00;15.85;;;14.18;;
34142;SDS011;20419;10.658;106.724;2023-03-11T08:27:27;14.57;;;13.07;;
34142;SDS011;20419;10.658;106.724;2023-03-11T08:29:54;15.73;;;14.15;;
34142;SDS011;20419;10.658;106.724;2023-03-11T08:32:22;14.82;;;13.30;;
34142;SDS011;20419;10.658;106.724;2023-03-11T08:34:49;15.60;;;13.18;;
34142;SDS011;20419;10.658;106.724;2023-03-11T08:37:16;16.58;;;14.77;;
34142;SDS011;20419;10.658;106.724;2023-03-11T08:39:44;16.00;;;14.00;;
34142;SDS011;20419;10.658;106.724;2023-03-11T08:44:43;16.60;;;14.40;;
34142;SDS011;20419;10.658;106.724;2023-03-11T08:47:12;15.10;;;13.43;;
34142;SDS011;20419;10.658;106.724;2023-03-11T08:49:39;16.95;;;14.95;;
34142;SDS011;20419;10.658;106.724;2023-03-11T08:52:06;15.75;;;14.10;;
34142;SDS011;20419;10.658;106.724;2023-03-11T08:54:33;16.85;;;14.32;;
34142;SDS011;20419;10.658;106.724;2023-03-11T08:57:00;15.52;;;13.93;;
34142;SDS011;20419;10.658;106.724;2023-03-11T09:01:55;15.77;;;13.98;;
34142;SDS011;20419;10.658;106.724;2023-03-11T09:04:22;16.30;;;14.05;;
34142;SDS011;20419;10.658;106.724;2023-03-11T09:06:49;16.65;;;14.43;;
34142;SDS011;20419;10.658;106.724;2023-03-11T09:09:16;15.02;;;13.38;;
34142;SDS011;20419;10.658;106.724;2023-03-11T09:11:47;15.57;;;13.98;;
34142;SDS011;20419;10.658;106.724;2023-03-11T09:14:15;16.52;;;14.85;;
34142;SDS011;20419;10.658;106.724;2023-03-11T09:16:43;15.05;;;13.48;;
34142;SDS011;20419;10.658;106.724;2023-03-11T09:19:10;14.93;;;13.38;;
34142;SDS011;20419;10.658;106.724;2023-03-11T09:21:39;16.35;;;14.43;;
34142;SDS011;20419;10.658;106.724;2023-03-11T09:24:07;16.65;;;13.98;;
34142;SDS011;20419;10.658;106.724;2023-03-11T09:26:34;13.77;;;12.38;;
34142;SDS011;20419;10.658;106.724;2023-03-11T09:29:01;15.48;;;13.77;;
34142;SDS011;20419;10.658;106.724;2023-03-11T09:31:28;16.17;;;14.43;;
34142;SDS011;20419;10.658;106.724;2023-03-11T09:33:57;15.95;;;14.27;;
34142;SDS011;20419;10.658;106.724;2023-03-11T09:36:24;13.60;;;12.15;;
34142;SDS011;20419;10.658;106.724;2023-03-11T09:38:51;15.65;;;14.05;;
34142;SDS011;20419;10.658;106.724;2023-03-11T09:41:22;15.95;;;14.35;;
34142;SDS011;20419;10.658;106.724;2023-03-11T09:51:45;14.70;;;13.30;;
34142;SDS011;20419;10.658;106.724;2023-03-11T09:54:12;15.25;;;13.65;;
34142;SDS011;20419;10.658;106.724;2023-03-11T09:56:40;15.00;;;13.00;;
34142;SDS011;20419;10.658;106.724;2023-03-11T10:01:41;14.30;;;12.80;;
34142;SDS011;20419;10.658;106.724;2023-03-11T10:06:38;14.45;;;12.95;;
34142;SDS011;20419;10.658;106.724;2023-03-11T10:14:14;15.10;;;13.50;;
34142;SDS011;20419;10.658;106.724;2023-03-11T10:22:01;13.95;;;12.45;;
34142;SDS011;20419;10.658;106.724;2023-03-11T10:32:47;14.55;;;13.00;;
34142;SDS011;20419;10.658;106.724;2023-03-11T10:35:20;13.70;;;12.30;;
34142;SDS011;20419;10.658;106.724;2023-03-11T10:37:52;14.98;;;13.48;;
34142;SDS011;20419;10.658;106.724;2023-03-11T10:40:29;14.02;;;12.63;;
34142;SDS011;20419;10.658;106.724;2023-03-11T10:42:58;14.25;;;12.68;;
34142;SDS011;20419;10.658;106.724;2023-03-11T10:45:26;13.10;;;11.70;;
34142;SDS011;20419;10.658;106.724;2023-03-11T10:47:55;13.07;;;11.68;;
34142;SDS011;20419;10.658;106.724;2023-03-11T10:50:22;14.25;;;12.63;;
34142;SDS011;20419;10.658;106.724;2023-03-11T10:55:31;14.10;;;12.60;;
34142;SDS011;20419;10.658;106.724;2023-03-11T10:58:06;14.43;;;12.20;;
34142;SDS011;20419;10.658;106.724;2023-03-11T11:00:33;12.45;;;11.25;;
34142;SDS011;20419;10.658;106.724;2023-03-11T11:03:00;13.60;;;12.30;;
34142;SDS011;20419;10.658;106.724;2023-03-11T11:08:13;13.48;;;12.07;;
34142;SDS011;20419;10.658;106.724;2023-03-11T11:10:51;14.00;;;12.55;;
34142;SDS011;20419;10.658;106.724;2023-03-11T11:13:20;13.95;;;12.52;;
34142;SDS011;20419;10.658;106.724;2023-03-11T11:15:51;13.73;;;12.30;;
34142;SDS011;20419;10.658;106.724;2023-03-11T11:18:30;13.70;;;12.30;;
34142;SDS011;20419;10.658;106.724;2023-03-11T11:21:08;14.40;;;12.00;;
34142;SDS011;20419;10.658;106.724;2023-03-11T11:26:05;13.27;;;11.95;;
34142;SDS011;20419;10.658;106.724;2023-03-11T11:28:33;13.57;;;12.18;;
34142;SDS011;20419;10.658;106.724;2023-03-11T11:31:01;13.48;;;12.00;;
34142;SDS011;20419;10.658;106.724;2023-03-11T11:36:00;12.80;;;11.50;;
34142;SDS011;20419;10.658;106.724;2023-03-11T11:38:28;12.95;;;11.50;;
34142;SDS011;20419;10.658;106.724;2023-03-11T11:40:56;12.48;;;11.10;;
34142;SDS011;20419;10.658;106.724;2023-03-11T11:45:58;14.07;;;12.63;;
34142;SDS011;20419;10.658;106.724;2023-03-11T11:51:02;13.10;;;11.70;;
34142;SDS011;20419;10.658;106.724;2023-03-11T11:56:13;13.25;;;11.85;;
34142;SDS011;20419;10.658;106.724;2023-03-11T11:58:40;14.35;;;12.85;;
34142;SDS011;20419;10.658;106.724;2023-03-11T12:01:54;13.40;;;11.32;;
34142;SDS011;20419;10.658;106.724;2023-03-11T12:04:02;14.80;;;12.13;;
34142;SDS011;20419;10.658;106.724;2023-03-11T12:12:16;14.10;;;12.50;;
34142;SDS011;20419;10.658;106.724;2023-03-11T12:14:42;14.75;;;12.18;;
34142;SDS011;20419;10.658;106.724;2023-03-11T12:17:11;15.02;;;12.15;;
34142;SDS011;20419;10.658;106.724;2023-03-11T12:19:53;16.65;;;11.88;;
34142;SDS011;20419;10.658;106.724;2023-03-11T12:25:13;16.77;;;12.43;;
34142;SDS011;20419;10.658;106.724;2023-03-11T12:27:56;18.33;;;13.07;;
34142;SDS011;20419;10.658;106.724;2023-03-11T12:30:26;14.47;;;12.57;;
34142;SDS011;20419;10.658;106.724;2023-03-11T12:32:59;17.33;;;12.40;;
34142;SDS011;20419;10.658;106.724;2023-03-11T12:35:30;17.15;;;12.48;;
34142;SDS011;20419;10.658;106.724;2023-03-11T12:46:13;16.60;;;12.65;;
34142;SDS011;20419;10.658;106.724;2023-03-11T12:49:04;17.70;;;12.60;;
34142;SDS011;20419;10.658;106.724;2023-03-11T12:56:50;17.13;;;13.55;;
34142;SDS011;20419;10.658;106.724;2023-03-11T13:10:18;15.93;;;12.57;;
34142;SDS011;20419;10.658;106.724;2023-03-11T13:12:49;15.98;;;12.80;;
34142;SDS011;20419;10.658;106.724;2023-03-11T13:15:29;18.83;;;12.95;;
34142;SDS011;20419;10.658;106.724;2023-03-11T13:36:14;18.27;;;13.63;;
34142;SDS011;20419;10.658;106.724;2023-03-11T13:41:35;14.20;;;12.55;;
34142;SDS011;20419;10.658;106.724;2023-03-11T13:44:13;18.05;;;13.82;;
34142;SDS011;20419;10.658;106.724;2023-03-11T13:46:42;15.95;;;12.57;;
34142;SDS011;20419;10.658;106.724;2023-03-11T13:51:46;16.42;;;12.68;;
34142;SDS011;20419;10.658;106.724;2023-03-11T13:57:04;16.10;;;12.45;;
34142;SDS011;20419;10.658;106.724;2023-03-11T13:59:33;17.80;;;13.50;;
34142;SDS011;20419;10.658;106.724;2023-03-11T14:05:14;16.55;;;13.77;;
34142;SDS011;20419;10.658;106.724;2023-03-11T14:07:43;16.85;;;12.15;;
34142;SDS011;20419;10.658;106.724;2023-03-11T14:10:29;15.50;;;12.45;;
34142;SDS011;20419;10.658;106.724;2023-03-11T14:13:17;17.73;;;12.50;;
34142;SDS011;20419;10.658;106.724;2023-03-11T14:16:09;15.48;;;12.00;;
34142;SDS011;20419;10.658;106.724;2023-03-11T14:18:40;15.80;;;12.68;;
34142;SDS011;20419;10.658;106.724;2023-03-11T14:21:20;17.92;;;12.68;;
34142;SDS011;20419;10.658;106.724;2023-03-11T14:23:50;15.40;;;12.20;;
34142;SDS011;20419;10.658;106.724;2023-03-11T14:26:27;15.07;;;12.70;;
34142;SDS011;20419;10.658;106.724;2023-03-11T14:28:59;15.82;;;12.82;;
34142;SDS011;20419;10.658;106.724;2023-03-11T14:31:35;15.13;;;12.25;;
34142;SDS011;20419;10.658;106.724;2023-03-11T14:34:09;14.35;;;11.90;;
34142;SDS011;20419;10.658;106.724;2023-03-11T14:37:01;17.02;;;13.45;;
34142;SDS011;20419;10.658;106.724;2023-03-11T14:39:34;15.77;;;12.63;;
34142;SDS011;20419;10.658;106.724;2023-03-11T14:42:09;17.45;;;11.80;;
34142;SDS011;20419;10.658;106.724;2023-03-11T14:50:46;16.52;;;11.32;;
34142;SDS011;20419;10.658;106.724;2023-03-11T14:53:58;18.13;;;13.13;;
34142;SDS011;20419;10.658;106.724;2023-03-11T14:56:12;15.63;;;12.25;;
34142;SDS011;20419;10.658;106.724;2023-03-11T14:59:12;17.02;;;11.77;;
34142;SDS011;20419;10.658;106.724;2023-03-11T15:01:39;16.65;;;12.65;;
34142;SDS011;20419;10.658;106.724;2023-03-11T15:04:31;16.52;;;12.45;;
34142;SDS011;20419;10.658;106.724;2023-03-11T15:07:02;14.43;;;11.98;;
34142;SDS011;20419;10.658;106.724;2023-03-11T15:09:29;16.55;;;12.32;;
34142;SDS011;20419;10.658;106.724;2023-03-11T15:12:34;15.88;;;12.23;;
34142;SDS011;20419;10.658;106.724;2023-03-11T15:15:02;14.13;;;11.85;;
34142;SDS011;20419;10.658;106.724;2023-03-11T15:17:29;15.95;;;12.48;;
34142;SDS011;20419;10.658;106.724;2023-03-11T15:19:59;15.00;;;11.43;;
34142;SDS011;20419;10.658;106.724;2023-03-11T15:24:57;16.58;;;12.60;;
34142;SDS011;20419;10.658;106.724;2023-03-11T15:27:32;14.98;;;11.57;;
34142;SDS011;20419;10.658;106.724;2023-03-11T15:30:00;15.10;;;10.90;;
34142;SDS011;20419;10.658;106.724;2023-03-11T15:35:00;15.88;;;12.27;;
34142;SDS011;20419;10.658;106.724;2023-03-11T15:37:29;14.60;;;11.18;;
34142;SDS011;20419;10.658;106.724;2023-03-11T15:39:56;14.63;;;10.93;;
34142;SDS011;20419;10.658;106.724;2023-03-11T15:42:24;15.77;;;12.20;;
34142;SDS011;20419;10.658;106.724;2023-03-11T15:44:58;16.50;;;12.45;;
34142;SDS011;20419;10.658;106.724;2023-03-11T15:47:26;13.00;;;10.60;;
34142;SDS011;20419;10.658;106.724;2023-03-11T15:49:54;15.48;;;11.85;;
34142;SDS011;20419;10.658;106.724;2023-03-11T15:52:21;14.20;;;11.20;;
34142;SDS011;20419;10.658;106.724;2023-03-11T15:54:48;15.18;;;11.57;;
34142;SDS011;20419;10.658;106.724;2023-03-11T15:57:25;15.45;;;12.38;;
34142;SDS011;20419;10.658;106.724;2023-03-11T15:59:54;16.38;;;11.65;;
34142;SDS011;20419;10.658;106.724;2023-03-11T16:02:23;11.95;;;10.73;;
34142;SDS011;20419;10.658;106.724;2023-03-11T16:04:51;17.65;;;12.50;;
34142;SDS011;20419;10.658;106.724;2023-03-11T16:07:19;14.82;;;11.80;;
34142;SDS011;20419;10.658;106.724;2023-03-11T16:09:46;15.13;;;11.70;;
34142;SDS011;20419;10.658;106.724;2023-03-11T16:12:17;14.77;;;11.13;;
34142;SDS011;20419;10.658;106.724;2023-03-11T16:14:45;14.30;;;12.00;;
34142;SDS011;20419;10.658;106.724;2023-03-11T16:17:12;13.15;;;10.70;;
34142;SDS011;20419;10.658;106.724;2023-03-11T16:19:49;15.23;;;11.57;;
34142;SDS011;20419;10.658;106.724;2023-03-11T16:22:17;13.85;;;11.68;;
34142;SDS011;20419;10.658;106.724;2023-03-11T16:24:46;13.40;;;11.30;;
34142;SDS011;20419;10.658;106.724;2023-03-11T16:27:14;14.15;;;11.25;;
34142;SDS011;20419;10.658;106.724;2023-03-11T16:32:09;12.55;;;11.25;;
34142;SDS011;20419;10.658;106.724;2023-03-11T16:34:37;13.77;;;11.73;;